Aviation Digital Data Service (ADDS)

Output produced by TAFs form (2341 UTC 07 February 2016)
found at http://aviationweather.gov/adds/tafs/
 
KASE 072320Z 0800/0824 29006KT P6SM SCT150 
     FM080200 24006KT P6SM SCT250 
     FM080500 20006KT P6SM SCT250 
     FM081500 17006KT P6SM SCT250 
     FM081700 01004KT P6SM SCT250